Irish Sea, Ireland
Current Conditions -  °F | °C
As of 1:50 AM on Sunday 21 Dec 2014 (Local Time) from EGOV Reporting Station
Broken Clouds Broken Clouds  
Wind Chill: 41°   Ceiling: 3000
Heat Index: 48°   Visibility: 6mi
Dew Point: 37°   Wind: 22mph
Humidity: 66%   Direction: 230°SW
Pressure: 30.33"   Gusts: NA
Location:  53.5°N, 5.33°W
Report Text: EGOV 210050Z AUTO 23019KT 9999 BKN030/// BKN042/// 09/03 Q1027 RERA
Loading
Personal Weather Stations






























Interactive Weather Map New forecast layout! Learn more

10-Day Weather Forecast

Advertisements
Track Severe Weather on mobile